createdAt,value
2023-05-25T00:01:01.298Z,36.19
2023-05-25T00:01:49.767Z,36.24
2023-05-25T00:02:48.736Z,36.21
2023-05-25T00:03:48.716Z,36.17
2023-05-25T00:04:48.574Z,36.22
2023-05-25T00:05:48.526Z,36.19
2023-05-25T00:06:48.523Z,36.23
2023-05-25T00:07:48.523Z,36.24
2023-05-25T00:08:48.522Z,36.20
2023-05-25T00:09:48.529Z,36.19
2023-05-25T00:10:48.539Z,36.20
2023-05-25T00:11:48.560Z,36.24
2023-05-25T00:12:48.624Z,36.20
2023-05-25T00:13:48.695Z,36.17
2023-05-25T00:14:48.739Z,36.20
2023-05-25T00:15:48.782Z,36.19
2023-05-25T00:16:48.847Z,36.22
2023-05-25T00:17:48.935Z,36.20
2023-05-25T00:18:48.929Z,36.17
2023-05-25T00:19:48.976Z,36.20
2023-05-25T00:20:49.041Z,36.16
2023-05-25T00:21:49.090Z,36.17
2023-05-25T00:22:49.155Z,36.19
2023-05-25T00:23:49.235Z,36.20
2023-05-25T00:24:49.316Z,36.22
2023-05-25T00:25:49.378Z,36.19
2023-05-25T00:26:49.412Z,36.12
2023-05-25T00:27:49.468Z,36.19
2023-05-25T00:28:49.545Z,36.17
2023-05-25T00:29:49.559Z,36.18
2023-05-25T00:30:49.639Z,36.19
2023-05-25T00:31:49.692Z,36.18
2023-05-25T00:32:49.757Z,36.20
2023-05-25T00:33:49.797Z,36.15
2023-05-25T00:34:49.921Z,36.16
2023-05-25T00:35:49.910Z,36.15
2023-05-25T00:36:49.978Z,36.17
2023-05-25T00:37:50.039Z,36.16
2023-05-25T00:38:50.102Z,36.17
2023-05-25T00:39:50.172Z,36.15
2023-05-25T00:40:50.234Z,36.13
2023-05-25T00:41:50.268Z,36.14
2023-05-25T00:42:50.328Z,36.15
2023-05-25T00:43:50.387Z,36.17
2023-05-25T00:44:50.436Z,36.19
2023-05-25T00:45:50.502Z,36.16
2023-05-25T00:46:50.664Z,36.14
2023-05-25T00:47:50.655Z,36.17
2023-05-25T00:48:50.739Z,36.13
2023-05-25T00:49:50.772Z,36.15
2023-05-25T00:50:50.840Z,36.12
2023-05-25T00:51:50.903Z,36.18
2023-05-25T00:52:50.989Z,36.16
2023-05-25T00:53:51.042Z,36.18
2023-05-25T00:54:51.104Z,36.16
2023-05-25T00:55:51.186Z,36.12
2023-05-25T00:56:51.279Z,36.13
2023-05-25T00:57:51.325Z,36.17
2023-05-25T00:58:51.420Z,36.15
2023-05-25T00:59:51.445Z,36.17
2023-05-25T01:00:51.524Z,36.12
2023-05-25T01:01:51.615Z,36.12
2023-05-25T01:02:51.688Z,36.12
2023-05-25T01:03:51.752Z,36.15
2023-05-25T01:04:51.797Z,36.12
2023-05-25T01:05:51.850Z,36.15
2023-05-25T01:06:51.939Z,36.13
2023-05-25T01:07:51.989Z,36.16
2023-05-25T01:08:52.072Z,36.15
2023-05-25T01:09:52.128Z,36.17
2023-05-25T01:10:52.177Z,36.15
2023-05-25T01:11:52.244Z,36.15
2023-05-25T01:12:52.311Z,36.15
2023-05-25T01:13:52.392Z,36.14
2023-05-25T01:14:52.456Z,36.12
2023-05-25T01:15:52.541Z,36.15
2023-05-25T01:16:52.686Z,36.16
2023-05-25T01:17:52.750Z,36.12
2023-05-25T01:18:52.868Z,36.11
2023-05-25T01:20:08.884Z,36.16
2023-05-25T01:20:53.837Z,36.15
2023-05-25T01:21:52.828Z,36.12
2023-05-25T01:22:52.862Z,36.15
2023-05-25T01:23:52.829Z,36.11
2023-05-25T01:24:52.819Z,36.12
2023-05-25T01:25:52.810Z,36.11
2023-05-25T01:26:52.821Z,36.08
2023-05-25T01:27:52.820Z,36.10
2023-05-25T01:28:52.915Z,36.11
2023-05-25T01:29:52.940Z,36.11
2023-05-25T01:30:53.019Z,36.13
2023-05-25T01:31:53.127Z,36.08
2023-05-25T01:32:53.159Z,36.09
2023-05-25T01:33:53.244Z,36.12
2023-05-25T01:34:53.281Z,36.14
2023-05-25T01:35:53.364Z,36.12
2023-05-25T01:36:53.415Z,36.12
2023-05-25T01:37:53.487Z,36.11
2023-05-25T01:38:53.575Z,36.09
2023-05-25T01:39:53.633Z,36.12
2023-05-25T01:40:53.691Z,36.08
2023-05-25T01:41:53.822Z,36.08
2023-05-25T01:42:53.838Z,36.12
2023-05-25T01:43:53.936Z,36.11
2023-05-25T01:44:54.020Z,36.06
2023-05-25T01:45:54.016Z,36.11
2023-05-25T01:46:53.990Z,36.09
2023-05-25T01:47:54.048Z,36.09
2023-05-25T01:48:54.017Z,36.13
2023-05-25T01:49:53.991Z,36.12
2023-05-25T01:50:53.989Z,36.09
2023-05-25T01:51:54.019Z,36.08
2023-05-25T01:52:54.029Z,36.15
2023-05-25T01:53:54.099Z,36.08
2023-05-25T01:54:54.152Z,36.08
2023-05-25T01:55:54.247Z,36.11
2023-05-25T01:56:54.310Z,36.06
2023-05-25T01:57:54.375Z,36.11
2023-05-25T01:58:54.460Z,36.05
2023-05-25T01:59:54.540Z,36.08
2023-05-25T02:00:54.607Z,36.06
2023-05-25T02:01:54.765Z,36.05
2023-05-25T02:02:54.799Z,36.06
2023-05-25T02:03:54.849Z,36.08
2023-05-25T02:04:54.920Z,36.07
2023-05-25T02:05:54.970Z,36.08
2023-05-25T02:06:55.039Z,36.06
2023-05-25T02:07:55.134Z,36.14
2023-05-25T02:08:55.185Z,36.09
2023-05-25T02:09:55.278Z,36.08
2023-05-25T02:10:55.339Z,36.05
2023-05-25T02:11:55.408Z,36.12
2023-05-25T02:12:55.483Z,36.06
2023-05-25T02:13:55.544Z,36.08
2023-05-25T02:14:55.610Z,36.06
2023-05-25T02:15:55.739Z,36.06
2023-05-25T02:16:55.761Z,36.09
2023-05-25T02:17:55.853Z,36.08
2023-05-25T02:18:55.915Z,36.08
2023-05-25T02:19:56.029Z,36.06
2023-05-25T02:20:56.052Z,36.06
2023-05-25T02:21:56.128Z,36.03
2023-05-25T02:22:56.191Z,36.05
2023-05-25T02:23:56.275Z,36.05
2023-05-25T02:24:56.343Z,36.06
2023-05-25T02:25:56.405Z,36.04
2023-05-25T02:26:56.477Z,36.03
2023-05-25T02:27:56.510Z,36.05
2023-05-25T02:28:56.569Z,36.03
2023-05-25T02:29:56.632Z,36.04
2023-05-25T02:30:56.726Z,36.06
2023-05-25T02:31:56.783Z,36.03
2023-05-25T02:32:56.865Z,36.06
2023-05-25T02:33:56.949Z,36.03
2023-05-25T02:34:56.979Z,36.01
2023-05-25T02:35:57.152Z,36.03
2023-05-25T02:36:57.134Z,36.01
2023-05-25T02:37:57.190Z,36.03
2023-05-25T02:38:57.258Z,36.05
2023-05-25T02:39:57.325Z,36.06
2023-05-25T02:40:57.383Z,36.08
2023-05-25T02:41:57.484Z,36.06
2023-05-25T02:42:57.506Z,36.04
2023-05-25T02:43:57.562Z,36.03
2023-05-25T02:44:57.614Z,36.03
2023-05-25T02:45:57.636Z,36.08
2023-05-25T02:46:57.739Z,36.03
2023-05-25T02:47:57.811Z,35.88
2023-05-25T02:48:57.858Z,35.45
2023-05-25T02:49:57.883Z,35.33
2023-05-25T02:50:57.911Z,35.12
2023-05-25T02:51:57.969Z,34.94
2023-05-25T02:52:58.053Z,34.85
2023-05-25T02:53:58.053Z,34.86
2023-05-25T02:54:58.092Z,34.94
2023-05-25T02:55:58.061Z,34.89
2023-05-25T02:56:58.071Z,34.78
2023-05-25T02:57:58.081Z,34.73
2023-05-25T02:58:58.099Z,34.66
2023-05-25T02:59:58.099Z,34.58
2023-05-25T03:00:58.143Z,34.56
2023-05-25T03:01:58.088Z,34.51
2023-05-25T03:02:58.130Z,34.48
2023-05-25T03:03:58.212Z,34.48
2023-05-25T03:04:58.170Z,34.40
2023-05-25T03:05:58.176Z,34.46
2023-05-25T03:06:58.166Z,34.43
2023-05-25T03:07:58.247Z,34.44
2023-05-25T03:08:58.211Z,34.40
2023-05-25T03:09:58.283Z,34.37
2023-05-25T03:10:58.266Z,34.39
2023-05-25T03:11:58.316Z,34.38
2023-05-25T03:12:58.347Z,34.34
2023-05-25T03:13:58.370Z,34.33
2023-05-25T03:14:58.404Z,34.35
2023-05-25T03:15:58.411Z,34.40
2023-05-25T03:16:58.450Z,34.38
2023-05-25T03:17:58.452Z,34.37
2023-05-25T03:18:58.410Z,34.34
2023-05-25T03:19:58.489Z,34.35
2023-05-25T03:20:58.415Z,34.35
2023-05-25T03:21:58.428Z,34.39
2023-05-25T03:22:58.428Z,34.34
2023-05-25T03:23:58.436Z,34.34
2023-05-25T03:24:58.437Z,34.34
2023-05-25T03:25:58.449Z,34.32
2023-05-25T03:26:58.450Z,34.37
2023-05-25T03:27:58.461Z,34.37
2023-05-25T03:28:58.484Z,34.36
2023-05-25T03:29:58.518Z,34.37
2023-05-25T03:30:58.564Z,34.38
2023-05-25T03:31:58.659Z,34.39
2023-05-25T03:32:58.664Z,34.34
2023-05-25T03:33:58.783Z,34.31
2023-05-25T03:34:58.814Z,34.36
2023-05-25T03:35:58.807Z,34.37
2023-05-25T03:36:58.854Z,34.37
2023-05-25T03:37:58.901Z,34.45
2023-05-25T03:38:58.976Z,34.41
2023-05-25T03:39:59.011Z,34.44
2023-05-25T03:40:59.054Z,34.38
2023-05-25T03:41:59.146Z,34.39
2023-05-25T03:42:59.171Z,34.40
2023-05-25T03:43:59.235Z,34.42
2023-05-25T03:44:59.288Z,34.43
2023-05-25T03:45:59.356Z,34.47
2023-05-25T03:46:59.405Z,34.47
2023-05-25T03:47:59.500Z,34.52
2023-05-25T03:48:59.526Z,34.39
2023-05-25T03:49:59.577Z,34.45
2023-05-25T03:50:59.641Z,34.49
2023-05-25T03:51:59.700Z,34.48
2023-05-25T03:52:59.768Z,34.53
2023-05-25T03:53:59.857Z,34.51
2023-05-25T03:54:59.908Z,34.51
2023-05-25T03:55:59.965Z,34.51
2023-05-25T03:57:00.037Z,34.48
2023-05-25T03:58:00.149Z,34.51
2023-05-25T03:59:00.173Z,34.50
2023-05-25T04:00:00.232Z,34.58
2023-05-25T04:01:00.308Z,34.58
2023-05-25T04:02:00.381Z,34.59
2023-05-25T04:03:00.526Z,34.56
2023-05-25T04:04:00.673Z,34.60
2023-05-25T04:05:00.589Z,34.64
2023-05-25T04:06:00.783Z,34.67
2023-05-25T04:07:00.734Z,34.63
2023-05-25T04:08:00.815Z,34.63
2023-05-25T04:09:00.892Z,34.68
2023-05-25T04:10:00.978Z,34.65
2023-05-25T04:11:01.050Z,34.69
2023-05-25T04:12:01.121Z,34.67
2023-05-25T04:13:01.195Z,34.71
2023-05-25T04:14:01.401Z,34.67
2023-05-25T04:15:01.349Z,34.68
2023-05-25T04:16:01.416Z,34.70
2023-05-25T04:17:01.430Z,34.70
2023-05-25T04:18:01.551Z,34.70
2023-05-25T04:19:01.530Z,34.74
2023-05-25T04:20:01.615Z,34.76
2023-05-25T04:21:01.636Z,34.76
2023-05-25T04:22:01.716Z,34.75
2023-05-25T04:23:01.768Z,34.77
2023-05-25T04:24:01.842Z,34.76
2023-05-25T04:25:01.882Z,34.80
2023-05-25T04:26:01.948Z,34.82
2023-05-25T04:27:01.993Z,34.76
2023-05-25T04:28:02.067Z,34.75
2023-05-25T04:29:02.117Z,34.80
2023-05-25T04:30:02.227Z,34.76
2023-05-25T04:31:02.230Z,34.79
2023-05-25T04:32:02.331Z,34.82
2023-05-25T04:33:02.375Z,34.83
2023-05-25T04:34:02.435Z,34.83
2023-05-25T04:35:02.506Z,34.84
2023-05-25T04:36:02.550Z,34.86
2023-05-25T04:37:02.615Z,34.88
2023-05-25T04:38:02.612Z,34.89
2023-05-25T04:39:02.625Z,34.93
2023-05-25T04:40:02.662Z,34.92
2023-05-25T04:41:02.671Z,34.94
2023-05-25T04:42:02.705Z,34.96
2023-05-25T04:43:02.749Z,34.96
2023-05-25T04:44:09.135Z,34.97
2023-05-25T04:45:03.808Z,34.88
2023-05-25T04:46:02.878Z,34.92
2023-05-25T04:47:02.816Z,34.93
2023-05-25T04:48:02.905Z,34.84
2023-05-25T04:49:02.840Z,34.89
2023-05-25T04:50:02.841Z,34.88
2023-05-25T04:51:02.846Z,34.93
2023-05-25T04:52:02.853Z,34.95
2023-05-25T04:53:02.856Z,34.97
2023-05-25T04:54:02.884Z,35.01
2023-05-25T04:55:02.907Z,35.02
2023-05-25T04:56:02.879Z,34.99
2023-05-25T04:57:02.879Z,35.01
2023-05-25T04:58:02.906Z,34.98
2023-05-25T04:59:02.935Z,34.95
2023-05-25T05:00:02.918Z,35.00
2023-05-25T05:01:02.980Z,35.08
2023-05-25T05:02:02.974Z,35.04
2023-05-25T05:03:03.050Z,35.09
2023-05-25T05:04:03.125Z,35.09
2023-05-25T05:05:03.016Z,35.14
2023-05-25T05:06:03.041Z,35.17
2023-05-25T05:07:03.035Z,35.13
2023-05-25T05:08:03.058Z,35.17
2023-05-25T05:09:03.087Z,35.16
2023-05-25T05:10:03.129Z,35.17
2023-05-25T05:11:03.129Z,35.17
2023-05-25T05:12:03.174Z,35.17
2023-05-25T05:13:03.187Z,35.19
2023-05-25T05:14:03.189Z,35.14
2023-05-25T05:15:03.227Z,35.17
2023-05-25T05:16:03.253Z,35.15
2023-05-25T05:17:03.404Z,35.13
2023-05-25T05:18:03.337Z,35.13
2023-05-25T05:19:03.356Z,35.19
2023-05-25T05:20:03.358Z,35.14
2023-05-25T05:21:03.336Z,35.19
2023-05-25T05:22:03.357Z,35.19
2023-05-25T05:23:03.385Z,35.18
2023-05-25T05:24:03.443Z,35.21
2023-05-25T05:25:03.430Z,35.19
2023-05-25T05:26:03.472Z,35.18
2023-05-25T05:27:04.825Z,35.20
2023-05-25T05:28:03.480Z,35.18
2023-05-25T05:29:03.489Z,35.17
2023-05-25T05:30:03.478Z,35.19
2023-05-25T05:31:03.552Z,35.20
2023-05-25T05:32:03.521Z,35.19
2023-05-25T05:33:03.651Z,35.19
2023-05-25T05:34:03.618Z,35.18
2023-05-25T05:35:03.593Z,35.22
2023-05-25T05:36:03.600Z,35.55
2023-05-25T05:37:03.648Z,36.13
2023-05-25T05:38:03.699Z,36.32
2023-05-25T05:39:03.810Z,36.53
2023-05-25T05:40:03.795Z,36.67
2023-05-25T05:41:03.897Z,36.90
2023-05-25T05:42:03.911Z,36.89
2023-05-25T05:43:03.934Z,36.82
2023-05-25T05:44:04.055Z,36.90
2023-05-25T05:45:04.032Z,37.11
2023-05-25T05:46:04.141Z,37.16
2023-05-25T05:47:04.164Z,37.19
2023-05-25T05:48:04.262Z,37.34
2023-05-25T05:49:04.245Z,37.36
2023-05-25T05:50:04.261Z,37.03
2023-05-25T05:51:04.319Z,37.18
2023-05-25T05:52:04.355Z,37.23
2023-05-25T05:53:04.401Z,37.39
2023-05-25T05:54:04.448Z,37.29
2023-05-25T05:55:04.432Z,37.53
2023-05-25T05:56:04.437Z,37.31
2023-05-25T05:57:04.444Z,36.78
2023-05-25T05:58:04.472Z,36.94
2023-05-25T05:59:04.481Z,36.67
2023-05-25T06:00:04.537Z,36.74
2023-05-25T06:01:04.515Z,36.88
2023-05-25T06:02:04.652Z,36.77
2023-05-25T06:03:04.615Z,36.40
2023-05-25T06:04:04.598Z,36.48
2023-05-25T06:05:04.744Z,36.68
2023-05-25T06:06:04.761Z,36.65
2023-05-25T06:07:04.662Z,36.78
2023-05-25T06:08:06.032Z,36.38
2023-05-25T06:09:04.723Z,36.35
2023-05-25T06:10:04.734Z,36.59
2023-05-25T06:11:04.804Z,36.47
2023-05-25T06:12:04.797Z,36.60
2023-05-25T06:13:04.866Z,36.58
2023-05-25T06:14:04.912Z,36.59
2023-05-25T06:15:04.872Z,36.68
2023-05-25T06:16:04.993Z,36.64
2023-05-25T06:17:04.912Z,36.57
2023-05-25T06:18:05.030Z,36.59
2023-05-25T06:19:04.981Z,36.49
2023-05-25T06:20:05.159Z,36.56
2023-05-25T06:21:05.095Z,36.40
2023-05-25T06:22:05.156Z,36.47
2023-05-25T06:23:05.243Z,36.44
2023-05-25T06:24:05.311Z,36.79
2023-05-25T06:25:05.380Z,36.71
2023-05-25T06:26:05.453Z,36.79
2023-05-25T06:27:05.544Z,36.88
2023-05-25T06:28:05.606Z,36.92
2023-05-25T06:29:05.680Z,36.96
2023-05-25T06:30:05.732Z,37.10
2023-05-25T06:31:05.771Z,36.99
2023-05-25T06:32:05.890Z,36.97
2023-05-25T06:33:05.906Z,36.97
2023-05-25T06:34:05.911Z,37.00
2023-05-25T06:35:07.984Z,37.02
2023-05-25T06:36:05.865Z,37.41
2023-05-25T06:37:06.014Z,37.41
2023-05-25T06:38:05.902Z,37.55
2023-05-25T06:39:05.887Z,37.60
2023-05-25T06:40:05.888Z,37.57
2023-05-25T06:41:05.894Z,37.65
2023-05-25T06:42:05.945Z,37.68
2023-05-25T06:43:05.927Z,37.62
2023-05-25T06:44:05.913Z,37.76
2023-05-25T06:45:05.924Z,37.83
2023-05-25T06:46:05.984Z,37.77
2023-05-25T06:47:05.931Z,37.59
2023-05-25T06:48:05.987Z,37.12
2023-05-25T06:49:05.972Z,36.58
2023-05-25T06:50:06.031Z,36.38
2023-05-25T06:51:05.922Z,36.24
2023-05-25T06:52:05.964Z,36.19
2023-05-25T06:53:05.930Z,36.19
2023-05-25T06:54:05.933Z,36.22
2023-05-25T06:55:05.946Z,36.11
2023-05-25T06:56:05.952Z,36.01
2023-05-25T06:57:05.944Z,35.95
2023-05-25T06:58:05.930Z,35.92
2023-05-25T06:59:05.948Z,35.87
2023-05-25T07:00:05.955Z,35.87
2023-05-25T07:01:06.003Z,35.87
2023-05-25T07:02:05.945Z,35.86
2023-05-25T07:03:05.967Z,35.94
2023-05-25T07:04:05.945Z,36.19
2023-05-25T07:05:06.019Z,36.23
2023-05-25T07:06:06.018Z,36.23
2023-05-25T07:07:05.964Z,36.23
2023-05-25T07:08:05.966Z,36.09
2023-05-25T07:09:05.940Z,35.95
2023-05-25T07:10:05.956Z,36.06
2023-05-25T07:11:05.953Z,35.79
2023-05-25T07:12:05.950Z,35.91
2023-05-25T07:13:05.970Z,35.76
2023-05-25T07:14:05.934Z,35.68
2023-05-25T07:15:05.932Z,35.60
2023-05-25T07:16:05.953Z,35.70
2023-05-25T07:17:05.953Z,35.59
2023-05-25T07:18:05.921Z,35.66
2023-05-25T07:19:05.886Z,35.64
2023-05-25T07:20:05.882Z,35.51
2023-05-25T07:21:05.845Z,35.46
2023-05-25T07:22:05.874Z,35.68
2023-05-25T07:23:05.837Z,35.87
2023-05-25T07:24:05.871Z,35.69
2023-05-25T07:25:05.870Z,35.37
2023-05-25T07:26:06.312Z,35.45
2023-05-25T07:27:05.885Z,35.50
2023-05-25T07:28:05.901Z,35.42
2023-05-25T07:29:05.869Z,35.49
2023-05-25T07:30:05.863Z,35.46
2023-05-25T07:31:05.912Z,35.39
2023-05-25T07:32:05.844Z,35.36
2023-05-25T07:33:05.865Z,35.28
2023-05-25T07:34:05.839Z,35.39
2023-05-25T07:35:05.836Z,35.66
2023-05-25T07:36:05.843Z,35.68
2023-05-25T07:37:05.887Z,35.77
2023-05-25T07:38:05.856Z,35.69
2023-05-25T07:39:05.857Z,35.84
2023-05-25T07:40:05.832Z,36.07
2023-05-25T07:41:05.891Z,36.17
2023-05-25T07:42:05.900Z,36.09
2023-05-25T07:43:08.291Z,36.12
2023-05-25T07:44:05.964Z,36.15
2023-05-25T07:45:05.952Z,36.10
2023-05-25T07:46:05.957Z,35.77
2023-05-25T07:47:06.101Z,35.76
2023-05-25T07:48:06.090Z,35.43
2023-05-25T07:49:05.925Z,35.37
2023-05-25T07:50:05.909Z,35.44
2023-05-25T07:51:05.919Z,35.68
2023-05-25T07:52:05.880Z,35.67
2023-05-25T07:53:05.921Z,35.75
2023-05-25T07:54:05.888Z,35.72
2023-05-25T07:55:05.951Z,35.29
2023-05-25T07:56:06.585Z,35.31
2023-05-25T07:57:05.875Z,35.36
2023-05-25T07:58:06.042Z,35.15
2023-05-25T07:59:06.000Z,35.11
2023-05-25T08:00:06.048Z,35.14
2023-05-25T08:01:06.327Z,35.28
2023-05-25T08:02:06.131Z,35.29
2023-05-25T08:03:06.305Z,35.41
2023-05-25T08:04:06.325Z,35.02
2023-05-25T08:05:06.386Z,35.19
2023-05-25T08:06:06.263Z,35.11
2023-05-25T08:07:06.367Z,35.24
2023-05-25T08:08:06.246Z,35.36
2023-05-25T08:09:06.292Z,35.19
2023-05-25T08:10:06.219Z,34.96
2023-05-25T08:11:06.244Z,34.98
2023-05-25T08:12:27.130Z,35.02
2023-05-25T08:13:07.175Z,34.94
2023-05-25T08:14:06.177Z,34.84
2023-05-25T08:15:06.159Z,34.91
2023-05-25T08:16:06.141Z,34.83
2023-05-25T08:17:06.157Z,34.83
2023-05-25T08:18:06.226Z,34.78
2023-05-25T08:19:06.128Z,35.21
2023-05-25T08:20:06.163Z,35.33
2023-05-25T08:21:06.096Z,34.93
2023-05-25T08:22:06.093Z,34.75
2023-05-25T08:23:06.075Z,34.77
2023-05-25T08:24:06.090Z,34.72
2023-05-25T08:25:06.068Z,34.75
2023-05-25T08:26:20.435Z,35.04
2023-05-25T08:27:07.054Z,34.92
2023-05-25T08:28:06.040Z,34.99
2023-05-25T08:29:06.086Z,34.93
2023-05-25T08:30:06.186Z,35.06
2023-05-25T08:31:06.078Z,35.76
2023-05-25T08:32:06.051Z,35.75
2023-05-25T08:33:06.085Z,35.64
2023-05-25T08:34:06.036Z,35.52
2023-05-25T08:35:06.002Z,35.60
2023-05-25T08:36:06.015Z,35.98
2023-05-25T08:37:06.022Z,35.89
2023-05-25T08:38:05.996Z,35.85
2023-05-25T08:39:06.010Z,35.93
2023-05-25T08:40:05.975Z,35.81
2023-05-25T08:41:06.060Z,35.91
2023-05-25T08:42:05.991Z,35.68
2023-05-25T08:43:05.992Z,35.66
2023-05-25T08:44:05.986Z,35.60
2023-05-25T08:45:05.983Z,35.67
2023-05-25T08:46:05.981Z,35.66
2023-05-25T08:47:06.121Z,35.74
2023-05-25T08:48:06.036Z,36.14
2023-05-25T08:49:06.033Z,35.94
2023-05-25T08:50:05.931Z,35.95
2023-05-25T08:51:07.120Z,36.43
2023-05-25T08:52:05.952Z,36.67
2023-05-25T08:53:05.941Z,36.99
2023-05-25T08:54:05.914Z,36.91
2023-05-25T08:55:05.931Z,37.02
2023-05-25T08:56:05.932Z,36.98
2023-05-25T08:57:05.902Z,37.01
2023-05-25T08:58:05.883Z,36.74
2023-05-25T08:59:06.976Z,36.57
2023-05-25T09:00:05.957Z,36.51
2023-05-25T09:01:05.959Z,36.28
2023-05-25T09:02:06.091Z,36.21
2023-05-25T09:03:06.122Z,35.72
2023-05-25T09:04:06.141Z,35.73
2023-05-25T09:05:06.134Z,35.68
2023-05-25T09:06:06.194Z,35.50
2023-05-25T09:07:10.733Z,35.39
2023-05-25T09:08:07.325Z,35.30
2023-05-25T09:09:06.197Z,35.28
2023-05-25T09:10:06.166Z,35.34
2023-05-25T09:11:06.160Z,35.36
2023-05-25T09:12:06.148Z,35.43
2023-05-25T09:13:19.802Z,35.17
2023-05-25T09:14:07.227Z,35.14
2023-05-25T09:15:06.323Z,35.09
2023-05-25T09:16:06.103Z,35.22
2023-05-25T09:17:06.104Z,35.17
2023-05-25T09:18:06.169Z,35.27
2023-05-25T09:19:06.057Z,35.28
2023-05-25T09:20:06.109Z,35.20
2023-05-25T09:21:06.082Z,35.22
2023-05-25T09:22:15.722Z,35.15
2023-05-25T09:23:07.034Z,35.01
2023-05-25T09:24:06.055Z,35.06
2023-05-25T09:25:06.062Z,35.03
2023-05-25T09:26:06.000Z,35.19
2023-05-25T09:27:06.026Z,35.18
2023-05-25T09:28:24.739Z,35.12
2023-05-25T09:29:06.986Z,35.12
2023-05-25T09:30:05.965Z,35.36
2023-05-25T09:31:05.966Z,35.16
2023-05-25T09:32:06.025Z,35.02
2023-05-25T09:33:05.965Z,35.11
2023-05-25T09:34:05.918Z,34.96
2023-05-25T09:35:05.916Z,34.71
2023-05-25T09:36:05.907Z,34.65
2023-05-25T09:37:06.005Z,34.72
2023-05-25T09:38:06.020Z,34.63
2023-05-25T09:39:06.032Z,34.60
2023-05-25T09:40:05.873Z,34.56
2023-05-25T09:41:05.907Z,34.58
2023-05-25T09:42:05.861Z,34.60
2023-05-25T09:43:05.856Z,34.69
2023-05-25T09:44:11.152Z,34.76
2023-05-25T09:45:06.896Z,35.09
2023-05-25T09:46:05.931Z,35.24
2023-05-25T09:47:05.885Z,35.45
2023-05-25T09:48:05.947Z,35.30
2023-05-25T09:49:05.879Z,35.03
2023-05-25T09:50:05.868Z,35.04
2023-05-25T09:51:05.859Z,34.82
2023-05-25T09:52:05.926Z,34.90
2023-05-25T09:53:05.859Z,35.30
2023-05-25T09:54:05.848Z,35.04
2023-05-25T09:55:05.835Z,35.17
2023-05-25T09:56:05.823Z,34.98
2023-05-25T09:57:05.830Z,34.82
2023-05-25T09:58:05.865Z,34.35
2023-05-25T09:59:05.916Z,34.34
2023-05-25T10:00:05.948Z,34.80
2023-05-25T10:01:06.025Z,35.41
2023-05-25T10:02:06.089Z,35.12
2023-05-25T10:03:06.153Z,35.20
2023-05-25T10:04:06.205Z,35.24
2023-05-25T10:05:06.311Z,34.97
2023-05-25T10:06:06.295Z,35.43
2023-05-25T10:07:06.354Z,35.08
2023-05-25T10:08:06.417Z,35.30
2023-05-25T10:09:06.471Z,35.24
2023-05-25T10:10:06.531Z,35.24
2023-05-25T10:11:06.560Z,35.33
2023-05-25T10:12:06.642Z,35.32
2023-05-25T10:13:06.648Z,35.48
2023-05-25T10:14:06.879Z,35.40
2023-05-25T10:15:06.691Z,35.36
2023-05-25T10:16:06.761Z,35.69
2023-05-25T10:17:06.659Z,35.70
2023-05-25T10:18:06.793Z,35.40
2023-05-25T10:19:06.674Z,35.50
2023-05-25T10:20:06.677Z,35.49
2023-05-25T10:21:06.753Z,35.56
2023-05-25T10:22:06.637Z,35.84
2023-05-25T10:23:06.637Z,35.94
2023-05-25T10:24:06.657Z,35.99
2023-05-25T10:25:06.616Z,35.87
2023-05-25T10:26:06.600Z,35.52
2023-05-25T10:27:18.365Z,35.25
2023-05-25T10:28:07.666Z,35.52
2023-05-25T10:29:06.619Z,35.51
2023-05-25T10:30:06.587Z,35.42
2023-05-25T10:31:06.664Z,35.59
2023-05-25T10:32:06.641Z,35.76
2023-05-25T10:33:06.715Z,35.63
2023-05-25T10:34:06.579Z,35.60
2023-05-25T10:35:06.588Z,35.86
2023-05-25T10:37:06.588Z,35.86
2023-05-25T10:38:06.591Z,36.01
2023-05-25T10:39:06.842Z,35.93
2023-05-25T10:40:06.598Z,35.80
2023-05-25T10:41:06.616Z,35.98
2023-05-25T10:42:06.627Z,36.21
2023-05-25T10:43:06.684Z,35.68
2023-05-25T10:44:06.687Z,35.25
2023-05-25T10:45:06.673Z,35.33
2023-05-25T10:46:06.664Z,35.59
2023-05-25T10:47:06.746Z,35.81
2023-05-25T10:48:06.681Z,35.62
2023-05-25T10:49:06.654Z,35.62
2023-05-25T10:50:06.648Z,35.83
2023-05-25T10:51:07.612Z,36.20
2023-05-25T10:52:06.741Z,36.24
2023-05-25T10:53:06.713Z,36.14
2023-05-25T10:54:06.751Z,35.99
2023-05-25T10:55:06.764Z,36.10
2023-05-25T10:56:06.800Z,35.92
2023-05-25T10:57:06.825Z,35.29
2023-05-25T10:58:06.895Z,35.90
2023-05-25T10:59:06.981Z,35.82
2023-05-25T11:00:07.258Z,35.69
2023-05-25T11:01:07.271Z,35.69
2023-05-25T11:02:09.347Z,35.72
2023-05-25T11:03:07.270Z,35.66
2023-05-25T11:04:07.274Z,35.86
2023-05-25T11:05:07.202Z,35.89
2023-05-25T11:06:07.203Z,35.58
2023-05-25T11:07:07.207Z,35.31
2023-05-25T11:08:08.714Z,35.30
2023-05-25T11:09:07.262Z,35.45
2023-05-25T11:10:07.232Z,35.20
2023-05-25T11:11:07.178Z,35.29
2023-05-25T11:12:07.191Z,35.10
2023-05-25T11:13:07.166Z,35.02
2023-05-25T11:14:07.155Z,35.01
2023-05-25T11:15:07.156Z,35.07
2023-05-25T11:16:07.149Z,35.06
2023-05-25T11:17:07.356Z,35.27
2023-05-25T11:18:07.319Z,35.04
2023-05-25T11:19:07.354Z,35.15
2023-05-25T11:20:07.468Z,35.48
2023-05-25T11:21:07.447Z,35.21
2023-05-25T11:22:07.533Z,35.81
2023-05-25T11:23:07.491Z,35.91
2023-05-25T11:24:07.541Z,35.93
2023-05-25T11:25:07.494Z,36.11
2023-05-25T11:26:07.477Z,36.00
2023-05-25T11:27:07.462Z,35.87
2023-05-25T11:28:07.460Z,35.85
2023-05-25T11:29:07.456Z,35.83
2023-05-25T11:30:07.454Z,35.76
2023-05-25T11:31:07.480Z,35.72
2023-05-25T11:32:07.475Z,35.65
2023-05-25T11:33:07.500Z,35.60
2023-05-25T11:34:07.456Z,35.53
2023-05-25T11:35:07.413Z,35.44
2023-05-25T11:36:07.409Z,35.40
2023-05-25T11:37:08.234Z,35.27
2023-05-25T11:38:07.439Z,35.19
2023-05-25T11:39:14.208Z,35.64
2023-05-25T11:40:08.412Z,36.12
2023-05-25T11:41:07.369Z,35.61
2023-05-25T11:42:07.412Z,35.37
2023-05-25T11:43:07.353Z,35.31
2023-05-25T11:44:07.347Z,35.24
2023-05-25T11:45:07.331Z,35.16
2023-05-25T11:46:07.406Z,35.06
2023-05-25T11:47:07.329Z,35.00
2023-05-25T11:48:07.304Z,34.90
2023-05-25T11:49:07.284Z,34.87
2023-05-25T11:50:07.280Z,34.84
2023-05-25T11:51:07.270Z,34.82
2023-05-25T11:52:07.294Z,34.84
2023-05-25T11:53:07.325Z,34.88
2023-05-25T11:54:07.247Z,34.97
2023-05-25T11:55:07.237Z,34.98
2023-05-25T11:56:08.576Z,36.46
2023-05-25T11:57:07.231Z,37.84
2023-05-25T11:58:07.203Z,36.41
2023-05-25T11:59:07.213Z,38.16
2023-05-25T12:00:07.183Z,41.00
2023-05-25T12:01:07.160Z,40.91
2023-05-25T12:02:07.198Z,40.41
2023-05-25T12:03:07.179Z,39.27
2023-05-25T12:04:07.229Z,39.75
2023-05-25T12:05:08.425Z,40.00
2023-05-25T12:06:07.081Z,39.96
2023-05-25T12:07:07.091Z,38.49
2023-05-25T12:08:07.060Z,38.92
2023-05-25T12:09:07.096Z,38.27
2023-05-25T12:10:07.144Z,37.89
2023-05-25T12:11:07.146Z,37.61
2023-05-25T12:12:07.192Z,37.45
2023-05-25T12:13:07.232Z,37.28
2023-05-25T12:14:07.358Z,37.11
2023-05-25T12:15:07.759Z,37.05
2023-05-25T12:16:07.311Z,36.96
2023-05-25T12:17:07.365Z,36.93
2023-05-25T12:18:07.374Z,36.90
2023-05-25T12:19:07.332Z,36.81
2023-05-25T12:20:07.361Z,36.77
2023-05-25T12:21:07.306Z,36.60
2023-05-25T12:22:07.289Z,36.53
2023-05-25T12:23:07.299Z,36.60
2023-05-25T12:24:07.277Z,36.59
2023-05-25T12:25:07.276Z,36.69
2023-05-25T12:26:07.270Z,36.66
2023-05-25T12:27:07.252Z,36.65
2023-05-25T12:28:07.278Z,36.65
2023-05-25T12:29:07.243Z,36.59
2023-05-25T12:30:07.245Z,36.60
2023-05-25T12:31:07.266Z,36.54
2023-05-25T12:32:07.330Z,36.52
2023-05-25T12:33:07.282Z,36.41
2023-05-25T12:34:07.193Z,36.41
2023-05-25T12:35:07.212Z,36.36
2023-05-25T12:36:07.189Z,36.31
2023-05-25T12:37:07.174Z,36.24
2023-05-25T12:38:07.151Z,36.17
2023-05-25T12:39:07.149Z,36.12
2023-05-25T12:40:07.140Z,36.11
2023-05-25T12:41:07.137Z,36.02
2023-05-25T12:42:07.107Z,35.98
2023-05-25T12:43:07.103Z,35.97
2023-05-25T12:44:07.121Z,35.90
2023-05-25T12:45:07.087Z,35.86
2023-05-25T12:46:07.097Z,35.81
2023-05-25T12:47:07.062Z,35.81
2023-05-25T12:48:07.126Z,35.75
2023-05-25T12:49:07.024Z,35.74
2023-05-25T12:50:07.031Z,35.71
2023-05-25T12:51:07.025Z,35.68
2023-05-25T12:52:06.998Z,35.69
2023-05-25T12:53:06.973Z,35.69
2023-05-25T12:54:06.974Z,35.65